sensor_id;sensor_type;location;lat;lon;timestamp;P1;durP1;ratioP1;P2;durP2;ratioP2
27684;SDS011;46113;50.130;8.526;2023-07-16T00:00:45;4.30;;;1.85;;
27684;SDS011;46113;50.130;8.526;2023-07-16T00:03:14;1.95;;;1.73;;
27684;SDS011;46113;50.130;8.526;2023-07-16T00:05:41;1.85;;;1.60;;
27684;SDS011;46113;50.130;8.526;2023-07-16T00:08:12;1.70;;;1.38;;
27684;SDS011;46113;50.130;8.526;2023-07-16T00:10:39;3.28;;;2.13;;
27684;SDS011;46113;50.130;8.526;2023-07-16T00:13:09;2.97;;;2.20;;
27684;SDS011;46113;50.130;8.526;2023-07-16T00:15:36;2.92;;;2.00;;
27684;SDS011;46113;50.130;8.526;2023-07-16T00:18:04;1.42;;;1.30;;
27684;SDS011;46113;50.130;8.526;2023-07-16T00:21:12;2.30;;;1.95;;
27684;SDS011;46113;50.130;8.526;2023-07-16T00:23:45;1.92;;;1.83;;
27684;SDS011;46113;50.130;8.526;2023-07-16T00:26:13;3.00;;;1.40;;
27684;SDS011;46113;50.130;8.526;2023-07-16T00:28:41;3.35;;;1.65;;
27684;SDS011;46113;50.130;8.526;2023-07-16T00:31:17;5.25;;;1.80;;
27684;SDS011;46113;50.130;8.526;2023-07-16T00:34:04;2.53;;;1.73;;
27684;SDS011;46113;50.130;8.526;2023-07-16T00:36:32;1.65;;;1.55;;
27684;SDS011;46113;50.130;8.526;2023-07-16T00:39:09;5.03;;;1.70;;
27684;SDS011;46113;50.130;8.526;2023-07-16T00:41:38;3.03;;;1.80;;
27684;SDS011;46113;50.130;8.526;2023-07-16T00:44:05;3.08;;;1.65;;
27684;SDS011;46113;50.130;8.526;2023-07-16T00:46:32;2.78;;;1.65;;
27684;SDS011;46113;50.130;8.526;2023-07-16T00:49:00;3.20;;;1.35;;
27684;SDS011;46113;50.130;8.526;2023-07-16T00:51:27;1.85;;;1.50;;
27684;SDS011;46113;50.130;8.526;2023-07-16T00:53:55;1.80;;;1.65;;
27684;SDS011;46113;50.130;8.526;2023-07-16T00:56:23;1.73;;;1.33;;
27684;SDS011;46113;50.130;8.526;2023-07-16T00:58:50;3.92;;;1.63;;
27684;SDS011;46113;50.130;8.526;2023-07-16T01:01:19;2.47;;;1.33;;
27684;SDS011;46113;50.130;8.526;2023-07-16T01:03:47;2.47;;;1.27;;
27684;SDS011;46113;50.130;8.526;2023-07-16T01:09:10;2.80;;;1.60;;
27684;SDS011;46113;50.130;8.526;2023-07-16T01:14:21;1.67;;;1.35;;
27684;SDS011;46113;50.130;8.526;2023-07-16T01:17:03;1.88;;;1.65;;
27684;SDS011;46113;50.130;8.526;2023-07-16T01:19:38;1.58;;;1.30;;
27684;SDS011;46113;50.130;8.526;2023-07-16T01:24:50;3.80;;;1.20;;
27684;SDS011;46113;50.130;8.526;2023-07-16T01:30:11;1.63;;;1.02;;
27684;SDS011;46113;50.130;8.526;2023-07-16T01:35:32;1.30;;;1.20;;
27684;SDS011;46113;50.130;8.526;2023-07-16T01:38:04;1.98;;;1.48;;
27684;SDS011;46113;50.130;8.526;2023-07-16T01:41:02;2.72;;;1.35;;
27684;SDS011;46113;50.130;8.526;2023-07-16T01:43:30;2.97;;;1.17;;
27684;SDS011;46113;50.130;8.526;2023-07-16T01:45:59;2.13;;;1.52;;
27684;SDS011;46113;50.130;8.526;2023-07-16T01:48:35;3.85;;;1.20;;
27684;SDS011;46113;50.130;8.526;2023-07-16T01:51:19;1.83;;;1.02;;
27684;SDS011;46113;50.130;8.526;2023-07-16T01:54:15;2.72;;;1.10;;
27684;SDS011;46113;50.130;8.526;2023-07-16T01:57:06;1.20;;;1.10;;
27684;SDS011;46113;50.130;8.526;2023-07-16T01:59:54;0.98;;;0.85;;
27684;SDS011;46113;50.130;8.526;2023-07-16T02:02:44;2.78;;;1.30;;
27684;SDS011;46113;50.130;8.526;2023-07-16T02:05:14;9.73;;;1.60;;
27684;SDS011;46113;50.130;8.526;2023-07-16T02:07:52;1.63;;;1.20;;
27684;SDS011;46113;50.130;8.526;2023-07-16T02:10:37;1.10;;;1.00;;
27684;SDS011;46113;50.130;8.526;2023-07-16T02:13:19;2.78;;;0.90;;
27684;SDS011;46113;50.130;8.526;2023-07-16T02:15:47;4.40;;;1.70;;
27684;SDS011;46113;50.130;8.526;2023-07-16T02:18:14;1.20;;;1.10;;
27684;SDS011;46113;50.130;8.526;2023-07-16T02:20:58;2.13;;;1.08;;
27684;SDS011;46113;50.130;8.526;2023-07-16T02:23:47;3.20;;;1.48;;
27684;SDS011;46113;50.130;8.526;2023-07-16T02:26:14;3.42;;;1.27;;
27684;SDS011;46113;50.130;8.526;2023-07-16T02:28:41;3.17;;;1.05;;
27684;SDS011;46113;50.130;8.526;2023-07-16T02:31:08;1.92;;;1.00;;
27684;SDS011;46113;50.130;8.526;2023-07-16T02:33:36;1.88;;;1.10;;
27684;SDS011;46113;50.130;8.526;2023-07-16T02:36:06;2.17;;;0.88;;
27684;SDS011;46113;50.130;8.526;2023-07-16T02:38:33;1.35;;;1.13;;
27684;SDS011;46113;50.130;8.526;2023-07-16T02:41:00;1.90;;;0.95;;
27684;SDS011;46113;50.130;8.526;2023-07-16T02:43:31;3.60;;;1.20;;
27684;SDS011;46113;50.130;8.526;2023-07-16T02:45:59;1.48;;;0.68;;
27684;SDS011;46113;50.130;8.526;2023-07-16T02:48:27;2.17;;;1.33;;
27684;SDS011;46113;50.130;8.526;2023-07-16T02:50:58;1.58;;;0.90;;
27684;SDS011;46113;50.130;8.526;2023-07-16T02:53:28;0.85;;;0.85;;
27684;SDS011;46113;50.130;8.526;2023-07-16T05:04:03;1.52;;;1.25;;
27684;SDS011;46113;50.130;8.526;2023-07-16T05:06:42;3.95;;;1.73;;
27684;SDS011;46113;50.130;8.526;2023-07-16T05:09:09;6.35;;;1.10;;
27684;SDS011;46113;50.130;8.526;2023-07-16T05:11:36;6.85;;;1.52;;
27684;SDS011;46113;50.130;8.526;2023-07-16T05:14:04;4.75;;;1.35;;
27684;SDS011;46113;50.130;8.526;2023-07-16T05:16:47;5.18;;;1.17;;
27684;SDS011;46113;50.130;8.526;2023-07-16T05:19:15;3.60;;;1.20;;
27684;SDS011;46113;50.130;8.526;2023-07-16T05:21:43;6.75;;;1.58;;
27684;SDS011;46113;50.130;8.526;2023-07-16T05:24:23;3.92;;;1.25;;
27684;SDS011;46113;50.130;8.526;2023-07-16T05:26:50;3.97;;;1.40;;
27684;SDS011;46113;50.130;8.526;2023-07-16T05:29:18;5.20;;;1.35;;
27684;SDS011;46113;50.130;8.526;2023-07-16T05:31:45;1.60;;;1.13;;
27684;SDS011;46113;50.130;8.526;2023-07-16T05:34:15;5.20;;;1.52;;
27684;SDS011;46113;50.130;8.526;2023-07-16T05:37:40;1.85;;;1.52;;
27684;SDS011;46113;50.130;8.526;2023-07-16T05:43:04;2.45;;;0.93;;
27684;SDS011;46113;50.130;8.526;2023-07-16T05:46:04;2.72;;;0.90;;
27684;SDS011;46113;50.130;8.526;2023-07-16T05:49:36;5.45;;;1.33;;
27684;SDS011;46113;50.130;8.526;2023-07-16T05:53:03;1.48;;;1.00;;
27684;SDS011;46113;50.130;8.526;2023-07-16T05:55:44;4.10;;;1.33;;
27684;SDS011;46113;50.130;8.526;2023-07-16T05:58:38;6.13;;;1.17;;
27684;SDS011;46113;50.130;8.526;2023-07-16T06:01:13;1.83;;;1.05;;
27684;SDS011;46113;50.130;8.526;2023-07-16T06:04:04;1.07;;;0.83;;
27684;SDS011;46113;50.130;8.526;2023-07-16T06:06:32;3.00;;;1.25;;
27684;SDS011;46113;50.130;8.526;2023-07-16T06:09:05;3.45;;;1.02;;
27684;SDS011;46113;50.130;8.526;2023-07-16T06:11:38;2.47;;;0.90;;
27684;SDS011;46113;50.130;8.526;2023-07-16T06:14:49;2.03;;;0.88;;
27684;SDS011;46113;50.130;8.526;2023-07-16T06:17:45;1.90;;;0.80;;
27684;SDS011;46113;50.130;8.526;2023-07-16T06:21:11;5.43;;;1.10;;
27684;SDS011;46113;50.130;8.526;2023-07-16T06:28:30;3.70;;;0.80;;
27684;SDS011;46113;50.130;8.526;2023-07-16T06:31:57;4.53;;;1.25;;
27684;SDS011;46113;50.130;8.526;2023-07-16T06:35:11;1.30;;;0.75;;
27684;SDS011;46113;50.130;8.526;2023-07-16T06:41:14;1.75;;;1.00;;
27684;SDS011;46113;50.130;8.526;2023-07-16T08:39:04;4.03;;;1.25;;
27684;SDS011;46113;50.130;8.526;2023-07-16T08:43:09;4.20;;;1.42;;
27684;SDS011;46113;50.130;8.526;2023-07-16T19:04:25;5.25;;;2.67;;
27684;SDS011;46113;50.130;8.526;2023-07-16T19:07:04;9.15;;;3.03;;
27684;SDS011;46113;50.130;8.526;2023-07-16T19:09:46;6.28;;;3.10;;
27684;SDS011;46113;50.130;8.526;2023-07-16T19:12:24;7.68;;;2.60;;
27684;SDS011;46113;50.130;8.526;2023-07-16T19:14:57;6.20;;;3.35;;
27684;SDS011;46113;50.130;8.526;2023-07-16T19:17:30;9.55;;;2.85;;
27684;SDS011;46113;50.130;8.526;2023-07-16T19:20:11;5.30;;;3.45;;
27684;SDS011;46113;50.130;8.526;2023-07-16T19:22:41;7.43;;;3.42;;
27684;SDS011;46113;50.130;8.526;2023-07-16T19:25:21;7.05;;;2.92;;
27684;SDS011;46113;50.130;8.526;2023-07-16T19:28:21;6.57;;;3.33;;
27684;SDS011;46113;50.130;8.526;2023-07-16T19:31:06;7.20;;;3.60;;
27684;SDS011;46113;50.130;8.526;2023-07-16T19:33:46;6.57;;;2.88;;
